CheckWX is a tool to help pilots better visualize weather data.  It is not intended as a substitute for an official pre-flight weather briefing.

05:16:34 UTC

KPTT METAR
Pratt Regional Airport
Pratt, Kansas, USA
Current

42 mins ago

KPTT 270435Z AUTO 16015G18KT 10SM BKN039 OVC046 22/21 A2988 RMK AO2 LTG DSNT SW T02160207
Observed
May-27 @ 04:35 UTC
Wind
  • 160° at 15 KTS
  • Gusting to 18 KTS
Visibility
10 SM
Flight Rules
VFR
Cloud Levels
  • Broken at 3,900' AGL
  • Overcast at 4,600' AGL
Temperature
22°C / 72°F
Dewpoint
21°C / 70°F
Humidity
94%
Altimeter
29.88" Hg
Pressure
1011.82 hPa
Previous

1 hour ago

KPTT 270415Z AUTO 15013KT 10SM BKN039 22/21 A2987 RMK AO2 LTG DSNT N AND W T02170208
Observed
May-27 @ 04:15 UTC
Wind
  • 150° at 13 KTS
Visibility
10 SM
Flight Rules
VFR
Cloud Levels
  • Broken at 3,900' AGL
Temperature
22°C / 72°F
Dewpoint
21°C / 70°F
Humidity
94%
Altimeter
29.87" Hg
Pressure
1011.52 hPa
Previous

1 hour ago

KPTT 270355Z AUTO 16012G18KT 10SM SCT036 SCT042 SCT110 22/21 A2989 RMK AO2 LTG DSNT N AND NW T02160207
Observed
May-27 @ 03:55 UTC
Wind
  • 160° at 12 KTS
  • Gusting to 18 KTS
Visibility
10 SM
Flight Rules
VFR
Cloud Levels
  • Scattered at 3,600' AGL
  • Scattered at 4,200' AGL
  • Scattered at 11,000' AGL
Temperature
22°C / 72°F
Dewpoint
21°C / 70°F
Humidity
94%
Altimeter
29.89" Hg
Pressure
1012.22 hPa